Time;durP1;ratioP1;P1;durP2;ratioP2;P2;SDS_P1;SDS_P2;PMS_P1;PMS_P2;Temp;Humidity;BMP_temperature;BMP_pressure;BME280_temperature;BME280_humidity;BME280_pressure;Samples;Min_cycle;Max_cycle;Signal;HPM_P1;HPM_P2
2022/03/02 00:01:16;;;;;;;19.73;14.15;;;;;;;;;;10266741;28;20076;-54
2022/03/02 00:06:14;;;;;;;46.63;25.80;;;;;;;;;;10266312;28;20474;-57
2022/03/02 00:11:16;;;;;;;52.75;26.40;;;;;;;;;;10270658;28;20164;-57
2022/03/02 00:16:16;;;;;;;112.22;56.45;;;;;;;;;;10280628;28;20091;-56
2022/03/02 00:21:15;;;;;;;97.70;51.53;;;;;;;;;;10278651;28;20087;-55
2022/03/02 00:26:14;;;;;;;42.63;25.55;;;;;;;;;;10276890;28;20072;-56
2022/03/02 00:31:12;;;;;;;113.40;55.53;;;;;;;;;;10272781;28;20079;-54
2022/03/02 00:36:12;;;;;;;117.65;62.13;;;;;;;;;;10274959;28;20077;-56
2022/03/02 00:41:10;;;;;;;136.52;63.88;;;;;;;;;;10275051;28;20076;-55
2022/03/02 00:46:08;;;;;;;85.03;43.92;;;;;;;;;;10274336;28;20083;-54
2022/03/02 00:51:07;;;;;;;56.25;33.10;;;;;;;;;;10275391;28;20137;-56
2022/03/02 00:56:08;;;;;;;80.43;43.25;;;;;;;;;;10274292;28;20037;-56
2022/03/02 01:01:07;;;;;;;72.07;44.95;;;;;;;;;;10275136;28;20079;-54
2022/03/02 01:06:06;;;;;;;46.30;29.10;;;;;;;;;;10278613;28;20552;-56
2022/03/02 01:11:04;;;;;;;62.80;34.85;;;;;;;;;;10277463;28;20049;-55
2022/03/02 01:16:04;;;;;;;41.13;24.35;;;;;;;;;;10274948;28;20075;-53
2022/03/02 01:21:02;;;;;;;44.63;30.05;;;;;;;;;;10278217;28;20107;-55
2022/03/02 01:26:01;;;;;;;43.08;28.90;;;;;;;;;;10276492;28;20065;-53
2022/03/02 01:30:59;;;;;;;55.30;33.38;;;;;;;;;;10273268;28;20072;-55
2022/03/02 01:35:59;;;;;;;6.63;6.00;;;;;;;;;;10272793;28;20076;-56
2022/03/02 01:40:57;;;;;;;9.57;6.97;;;;;;;;;;10272948;28;20072;-56
2022/03/02 01:45:55;;;;;;;13.25;10.82;;;;;;;;;;10272370;28;20164;-54
2022/03/02 01:50:54;;;;;;;12.45;9.93;;;;;;;;;;10271970;28;20073;-54
2022/03/02 01:55:55;;;;;;;8.38;7.22;;;;;;;;;;10270338;28;20079;-55
2022/03/02 02:00:53;;;;;;;7.72;7.03;;;;;;;;;;10271329;28;20087;-55
2022/03/02 02:05:52;;;;;;;8.90;8.00;;;;;;;;;;10270098;28;20541;-56
2022/03/02 02:10:51;;;;;;;10.52;8.95;;;;;;;;;;10276032;28;20065;-55
2022/03/02 02:15:50;;;;;;;12.65;10.50;;;;;;;;;;10270730;28;20069;-54
2022/03/02 02:20:50;;;;;;;11.60;10.18;;;;;;;;;;10270999;28;20060;-55
2022/03/02 02:25:48;;;;;;;13.63;10.52;;;;;;;;;;10270609;28;20072;-55
2022/03/02 02:30:47;;;;;;;23.02;17.90;;;;;;;;;;10270211;28;20079;-56
2022/03/02 02:35:46;;;;;;;23.55;15.63;;;;;;;;;;10270304;28;20077;-55
2022/03/02 02:40:45;;;;;;;20.40;16.73;;;;;;;;;;10270255;28;20103;-56
2022/03/02 02:45:44;;;;;;;30.85;19.40;;;;;;;;;;10269083;28;20481;-56
2022/03/02 02:50:42;;;;;;;36.60;21.27;;;;;;;;;;10269632;28;20069;-56
2022/03/02 02:55:42;;;;;;;22.83;18.70;;;;;;;;;;10269526;28;20083;-54
2022/03/02 03:00:43;;;;;;;28.33;16.52;;;;;;;;;;10269235;28;20076;-54
2022/03/02 03:05:41;;;;;;;21.20;16.88;;;;;;;;;;10268555;28;20088;-55
2022/03/02 03:10:40;;;;;;;21.58;17.40;;;;;;;;;;10268304;28;20060;-56
2022/03/02 03:15:39;;;;;;;30.35;20.10;;;;;;;;;;10268912;28;20073;-55
2022/03/02 03:20:38;;;;;;;28.95;19.13;;;;;;;;;;10269279;28;20461;-55
2022/03/02 03:25:37;;;;;;;47.25;19.63;;;;;;;;;;10267934;28;20493;-56
2022/03/02 03:30:36;;;;;;;43.58;18.17;;;;;;;;;;10273770;28;20081;-55
2022/03/02 03:35:34;;;;;;;26.45;18.65;;;;;;;;;;10271925;28;20120;-54
2022/03/02 03:40:34;;;;;;;33.35;20.05;;;;;;;;;;10268503;28;20065;-55
2022/03/02 03:45:32;;;;;;;53.20;25.17;;;;;;;;;;10268691;28;20072;-55
2022/03/02 03:50:31;;;;;;;41.58;29.42;;;;;;;;;;10275032;28;20057;-55
2022/03/02 03:55:29;;;;;;;60.22;25.58;;;;;;;;;;10275853;28;20079;-55
2022/03/02 04:00:29;;;;;;;98.43;44.75;;;;;;;;;;10276515;28;20060;-56
2022/03/02 04:05:27;;;;;;;40.22;29.83;;;;;;;;;;10280617;28;20083;-55
2022/03/02 04:10:26;;;;;;;44.72;27.77;;;;;;;;;;10280735;28;20470;-55
2022/03/02 04:15:24;;;;;;;40.00;26.10;;;;;;;;;;10273970;28;20072;-54
2022/03/02 04:20:24;;;;;;;101.10;39.45;;;;;;;;;;10278374;28;20477;-54
2022/03/02 04:25:22;;;;;;;154.75;31.50;;;;;;;;;;10279568;28;20103;-55
2022/03/02 04:30:20;;;;;;;137.15;35.47;;;;;;;;;;10275104;28;20075;-55
2022/03/02 04:35:19;;;;;;;69.47;34.22;;;;;;;;;;10274510;28;20065;-56
2022/03/02 04:40:19;;;;;;;71.63;29.45;;;;;;;;;;10272255;28;20060;-54
2022/03/02 04:45:17;;;;;;;42.25;27.55;;;;;;;;;;10272933;28;20127;-53
2022/03/02 04:50:19;;;;;;;44.35;30.00;;;;;;;;;;10270235;28;20069;-55
2022/03/02 04:55:18;;;;;;;66.38;30.45;;;;;;;;;;10262404;28;20128;-54
2022/03/02 05:00:17;;;;;;;41.95;27.83;;;;;;;;;;10278592;28;20075;-55
2022/03/02 05:05:17;;;;;;;75.65;38.67;;;;;;;;;;10275565;28;20481;-55
2022/03/02 05:51:21;;;;;;;102.65;44.92;;;;;;;;;;10307573;28;20502;-53
2022/03/02 05:56:19;;;;;;;58.38;32.47;;;;;;;;;;10280880;28;20056;-52
2022/03/02 06:01:18;;;;;;;54.63;34.10;;;;;;;;;;10275026;28;20466;-55
2022/03/02 06:06:16;;;;;;;36.88;26.27;;;;;;;;;;10269454;28;20092;-55
2022/03/02 06:11:16;;;;;;;43.88;28.83;;;;;;;;;;10268896;28;20609;-54
2022/03/02 06:16:15;;;;;;;63.53;32.65;;;;;;;;;;10267923;28;20073;-56
2022/03/02 06:21:15;;;;;;;41.45;29.55;;;;;;;;;;10269422;28;20082;-55
2022/03/02 06:26:14;;;;;;;46.50;31.63;;;;;;;;;;10268613;28;20076;-56
2022/03/02 06:31:14;;;;;;;52.10;38.58;;;;;;;;;;10270392;28;20064;-55
2022/03/02 06:36:12;;;;;;;42.60;30.73;;;;;;;;;;10270277;28;20418;-55
2022/03/02 06:41:15;;;;;;;63.45;33.05;;;;;;;;;;10266868;28;20077;-54
2022/03/02 06:46:20;;;;;;;60.95;38.50;;;;;;;;;;10265963;28;20073;-54
2022/03/02 06:51:21;;;;;;;44.25;31.33;;;;;;;;;;10266087;28;20478;-54
2022/03/02 06:56:20;;;;;;;54.17;39.88;;;;;;;;;;10268133;28;20458;-56
2022/03/02 07:01:24;;;;;;;59.85;38.55;;;;;;;;;;10279940;28;20064;-56
2022/03/02 07:06:24;;;;;;;67.88;37.40;;;;;;;;;;10268016;28;20550;-53
2022/03/02 07:11:22;;;;;;;61.63;39.17;;;;;;;;;;10272575;28;20073;-54
2022/03/02 07:16:22;;;;;;;52.60;34.42;;;;;;;;;;10265594;28;20072;-56
2022/03/02 07:21:23;;;;;;;50.08;33.17;;;;;;;;;;10264191;28;20077;-54
2022/03/02 07:26:22;;;;;;;69.13;43.10;;;;;;;;;;10265549;28;20079;-56
2022/03/02 07:31:22;;;;;;;87.40;54.67;;;;;;;;;;10266134;28;20130;-54
2022/03/02 07:36:32;;;;;;;52.67;37.05;;;;;;;;;;10266650;28;20090;-55
2022/03/02 07:41:30;;;;;;;54.28;38.72;;;;;;;;;;10266931;28;20076;-55
2022/03/02 07:46:30;;;;;;;57.70;37.65;;;;;;;;;;10266841;28;20076;-55
2022/03/02 07:51:30;;;;;;;45.60;32.00;;;;;;;;;;10264868;28;20084;-56
2022/03/02 07:56:29;;;;;;;65.18;45.50;;;;;;;;;;10265297;28;20084;-56
2022/03/02 08:01:27;;;;;;;62.95;46.83;;;;;;;;;;10268697;28;20430;-56
2022/03/02 08:06:28;;;;;;;65.97;46.90;;;;;;;;;;10267056;28;20076;-55
2022/03/02 08:11:27;;;;;;;54.53;41.83;;;;;;;;;;10267658;28;20529;-57
2022/03/02 08:16:26;;;;;;;45.15;36.72;;;;;;;;;;10268122;28;20057;-54
2022/03/02 08:21:27;;;;;;;59.53;44.50;;;;;;;;;;10267778;28;20069;-57
2022/03/02 08:26:28;;;;;;;41.28;33.25;;;;;;;;;;10267452;28;20537;-56
2022/03/02 08:31:27;;;;;;;75.30;54.95;;;;;;;;;;10265987;28;20079;-54
2022/03/02 08:36:26;;;;;;;56.05;39.40;;;;;;;;;;10274445;28;20586;-56
2022/03/02 08:41:24;;;;;;;38.15;28.23;;;;;;;;;;10274497;28;20075;-55
2022/03/02 08:46:24;;;;;;;34.28;27.27;;;;;;;;;;10275240;28;20079;-53
2022/03/02 08:51:23;;;;;;;41.70;31.27;;;;;;;;;;10266405;28;20666;-55
2022/03/02 08:56:23;;;;;;;40.53;28.42;;;;;;;;;;10265395;28;20080;-57
2022/03/02 09:01:23;;;;;;;39.47;26.55;;;;;;;;;;10272876;28;20084;-58
2022/03/02 09:06:23;;;;;;;77.18;48.75;;;;;;;;;;10273898;28;20176;-56
2022/03/02 09:11:22;;;;;;;38.05;28.08;;;;;;;;;;10272355;28;20073;-55
2022/03/02 09:16:20;;;;;;;52.38;39.13;;;;;;;;;;10270349;28;20069;-56
2022/03/02 09:21:20;;;;;;;28.73;23.30;;;;;;;;;;10269771;28;20477;-54
2022/03/02 09:26:20;;;;;;;29.83;24.73;;;;;;;;;;10272991;28;20450;-58
2022/03/02 09:31:19;;;;;;;36.13;27.50;;;;;;;;;;10270168;28;20076;-56
2022/03/02 09:36:20;;;;;;;33.15;26.10;;;;;;;;;;10273026;28;20076;-57
2022/03/02 09:41:38;;;;;;;40.03;26.33;;;;;;;;;;10273052;28;20064;-56
2022/03/02 09:46:38;;;;;;;89.88;58.83;;;;;;;;;;10269881;28;20636;-58
2022/03/02 09:51:38;;;;;;;45.28;31.88;;;;;;;;;;10271865;28;20077;-59
2022/03/02 09:56:41;;;;;;;40.75;32.35;;;;;;;;;;10271759;28;20085;-58
2022/03/02 10:01:41;;;;;;;30.63;24.35;;;;;;;;;;10275791;28;20229;-57
2022/03/02 10:06:43;;;;;;;32.05;26.13;;;;;;;;;;10270237;28;20073;-56
2022/03/02 10:11:43;;;;;;;42.85;32.67;;;;;;;;;;10271472;28;20502;-58
2022/03/02 10:16:44;;;;;;;27.70;22.58;;;;;;;;;;10271787;28;20080;-58
2022/03/02 10:22:13;;;;;;;29.40;24.20;;;;;;;;;;10284949;28;20349;-56
2022/03/02 10:27:20;;;;;;;27.58;21.13;;;;;;;;;;10283710;28;20072;-58
2022/03/02 10:32:18;;;;;;;23.08;19.45;;;;;;;;;;10285218;28;20084;-58
2022/03/02 10:37:30;;;;;;;20.27;16.05;;;;;;;;;;10270875;28;20061;-56
2022/03/02 10:42:30;;;;;;;47.30;32.25;;;;;;;;;;10278052;28;20081;-57
2022/03/02 10:47:29;;;;;;;45.38;30.20;;;;;;;;;;10269739;28;20073;-56
2022/03/02 10:52:29;;;;;;;35.10;24.30;;;;;;;;;;10283614;28;20093;-56
2022/03/02 10:57:28;;;;;;;22.40;17.92;;;;;;;;;;10273514;28;20466;-56
2022/03/02 11:02:28;;;;;;;46.53;28.13;;;;;;;;;;10285326;28;20065;-58
2022/03/02 11:07:29;;;;;;;48.15;31.40;;;;;;;;;;10282602;28;20100;-57
2022/03/02 11:12:30;;;;;;;20.52;17.27;;;;;;;;;;10283077;28;20087;-56
2022/03/02 11:17:30;;;;;;;24.05;16.83;;;;;;;;;;10268661;28;20072;-56
2022/03/02 11:22:29;;;;;;;33.08;21.08;;;;;;;;;;10270276;28;20399;-56
2022/03/02 11:27:28;;;;;;;13.00;10.98;;;;;;;;;;10267766;28;20522;-57
2022/03/02 11:32:27;;;;;;;27.17;18.63;;;;;;;;;;10283033;28;20139;-56
2022/03/02 11:37:28;;;;;;;13.77;10.75;;;;;;;;;;10268216;28;20077;-58
2022/03/02 11:42:30;;;;;;;22.48;18.45;;;;;;;;;;10283074;28;20080;-57
2022/03/02 11:47:34;;;;;;;11.20;9.93;;;;;;;;;;10275515;28;20092;-57
2022/03/02 11:52:34;;;;;;;19.02;15.20;;;;;;;;;;10265883;28;20458;-56
2022/03/02 11:57:39;;;;;;;26.92;18.05;;;;;;;;;;10273037;28;20091;-55
2022/03/02 12:02:41;;;;;;;24.63;18.40;;;;;;;;;;10264326;28;20076;-57
2022/03/02 12:07:42;;;;;;;33.97;23.10;;;;;;;;;;10258628;28;20069;-57
2022/03/02 12:12:40;;;;;;;16.88;11.63;;;;;;;;;;10274630;28;20295;-57
2022/03/02 12:17:39;;;;;;;19.17;15.82;;;;;;;;;;10276994;28;20072;-56
2022/03/02 12:22:39;;;;;;;49.47;34.00;;;;;;;;;;10272503;28;20069;-58
2022/03/02 12:27:39;;;;;;;17.33;15.23;;;;;;;;;;10267283;28;20100;-57
2022/03/02 12:32:38;;;;;;;21.88;15.95;;;;;;;;;;10267106;28;20071;-57
2022/03/02 12:37:36;;;;;;;20.30;17.65;;;;;;;;;;10265031;28;20090;-59
2022/03/02 12:42:34;;;;;;;26.27;18.73;;;;;;;;;;10308963;28;20076;-58
2022/03/02 12:47:35;;;;;;;21.50;15.50;;;;;;;;;;10272222;28;20091;-56
2022/03/02 12:52:39;;;;;;;21.77;15.35;;;;;;;;;;10270180;28;20089;-57
2022/03/02 12:57:39;;;;;;;13.32;10.70;;;;;;;;;;10266209;28;20073;-57
2022/03/02 13:02:39;;;;;;;17.15;13.32;;;;;;;;;;10265430;28;20077;-57
2022/03/02 13:07:40;;;;;;;27.20;18.48;;;;;;;;;;10265633;28;20121;-59
2022/03/02 13:12:39;;;;;;;16.15;14.27;;;;;;;;;;10263033;28;20076;-58
2022/03/02 13:17:38;;;;;;;24.45;17.70;;;;;;;;;;10265325;28;20076;-58
2022/03/02 13:22:37;;;;;;;63.10;41.45;;;;;;;;;;10264063;28;20068;-58
2022/03/02 13:27:37;;;;;;;22.38;19.15;;;;;;;;;;10261904;28;20080;-57
2022/03/02 13:32:58;;;;;;;25.67;21.45;;;;;;;;;;10272783;28;20065;-57
2022/03/02 13:38:17;;;;;;;31.60;24.13;;;;;;;;;;10271038;28;20068;-58
2022/03/02 13:43:39;;;;;;;22.08;17.30;;;;;;;;;;10272497;28;20421;-58
2022/03/02 13:48:46;;;;;;;11.70;9.63;;;;;;;;;;10271794;28;20510;-58
2022/03/02 13:53:46;;;;;;;23.70;19.35;;;;;;;;;;10271570;28;20080;-57
2022/03/02 13:58:45;;;;;;;23.60;15.75;;;;;;;;;;10271554;28;20081;-59
2022/03/02 14:03:46;;;;;;;30.88;21.98;;;;;;;;;;10271035;28;20506;-58
2022/03/02 14:08:45;;;;;;;17.63;15.75;;;;;;;;;;10271231;28;20099;-58
2022/03/02 14:13:45;;;;;;;20.33;18.17;;;;;;;;;;10270648;28;20049;-58
2022/03/02 14:18:46;;;;;;;22.02;16.95;;;;;;;;;;10270616;28;20065;-58
2022/03/02 14:23:45;;;;;;;35.60;26.77;;;;;;;;;;10269076;28;20053;-57
2022/03/02 14:28:44;;;;;;;22.80;17.67;;;;;;;;;;10270314;28;20162;-58
2022/03/02 14:33:42;;;;;;;43.92;27.13;;;;;;;;;;10274776;28;20478;-58
2022/03/02 14:38:42;;;;;;;42.35;30.60;;;;;;;;;;10274911;28;20088;-56
2022/03/02 14:43:40;;;;;;;49.45;35.60;;;;;;;;;;10274719;28;20131;-58
2022/03/02 14:48:39;;;;;;;62.05;41.33;;;;;;;;;;10269573;28;20072;-57
2022/03/02 14:53:38;;;;;;;38.83;25.17;;;;;;;;;;10274412;28;20087;-58
2022/03/02 14:58:41;;;;;;;24.70;19.00;;;;;;;;;;10274541;28;20076;-58
2022/03/02 15:03:40;;;;;;;90.47;59.55;;;;;;;;;;10273032;28;20083;-58
2022/03/02 15:08:40;;;;;;;75.03;53.08;;;;;;;;;;10268837;28;20079;-58
2022/03/02 15:19:18;;;;;;;223.80;127.00;;;;;;;;;;10268928;28;20052;-57
2022/03/02 15:24:16;;;;;;;41.85;29.45;;;;;;;;;;10262674;28;20079;-58
2022/03/02 15:29:19;;;;;;;45.70;29.92;;;;;;;;;;10260953;28;20076;-58
2022/03/02 15:34:18;;;;;;;46.17;35.13;;;;;;;;;;10268610;28;20490;-57
2022/03/02 15:39:23;;;;;;;81.78;48.60;;;;;;;;;;10262141;28;20426;-58
2022/03/02 15:44:23;;;;;;;98.13;56.72;;;;;;;;;;10272391;28;20096;-58
2022/03/02 15:49:21;;;;;;;42.22;27.73;;;;;;;;;;10276269;28;20107;-57
2022/03/02 15:54:20;;;;;;;51.83;35.35;;;;;;;;;;10276951;28;20072;-57
2022/03/02 15:59:20;;;;;;;87.53;50.10;;;;;;;;;;10275476;28;20066;-57
2022/03/02 16:04:20;;;;;;;88.68;48.63;;;;;;;;;;10270719;28;20450;-58
2022/03/02 16:09:19;;;;;;;68.00;40.45;;;;;;;;;;10275097;28;20073;-56
2022/03/02 16:14:19;;;;;;;52.25;37.70;;;;;;;;;;10268775;28;20068;-58
2022/03/02 16:19:18;;;;;;;66.50;43.28;;;;;;;;;;10269169;28;20087;-57
2022/03/02 16:24:31;;;;;;;50.55;37.65;;;;;;;;;;10269102;28;20080;-58
2022/03/02 16:29:29;;;;;;;95.63;55.08;;;;;;;;;;10274898;28;20072;-58
2022/03/02 16:34:30;;;;;;;111.15;65.13;;;;;;;;;;10275268;28;20084;-58
2022/03/02 16:39:29;;;;;;;62.30;46.15;;;;;;;;;;10274892;28;20099;-57
2022/03/02 16:44:28;;;;;;;49.67;36.38;;;;;;;;;;10274348;28;20075;-58
2022/03/02 16:49:26;;;;;;;34.35;29.83;;;;;;;;;;10274519;28;20079;-58
2022/03/02 16:54:27;;;;;;;82.93;53.60;;;;;;;;;;10273912;28;20095;-58
2022/03/02 16:59:26;;;;;;;42.42;34.28;;;;;;;;;;10273509;28;20550;-58
2022/03/02 17:04:25;;;;;;;37.80;30.10;;;;;;;;;;10273999;28;20167;-57
2022/03/02 17:09:24;;;;;;;39.65;26.13;;;;;;;;;;10273493;28;20493;-58
2022/03/02 17:14:23;;;;;;;37.05;26.33;;;;;;;;;;10273554;28;20465;-58
2022/03/02 17:19:23;;;;;;;34.78;26.05;;;;;;;;;;10273261;28;20064;-58
2022/03/02 17:24:21;;;;;;;44.05;31.05;;;;;;;;;;10272943;28;20076;-57
2022/03/02 17:29:20;;;;;;;34.28;24.27;;;;;;;;;;10272318;28;20076;-57
2022/03/02 17:34:18;;;;;;;55.55;36.47;;;;;;;;;;10272171;28;20064;-58
2022/03/02 17:39:17;;;;;;;45.08;29.85;;;;;;;;;;10266533;28;20087;-56
2022/03/02 17:44:16;;;;;;;29.67;24.15;;;;;;;;;;10265424;28;20079;-57
2022/03/02 17:49:14;;;;;;;35.97;27.58;;;;;;;;;;10270082;28;20064;-56
2022/03/02 17:54:14;;;;;;;54.88;42.63;;;;;;;;;;10271182;28;20514;-55
2022/03/02 17:59:14;;;;;;;29.90;21.17;;;;;;;;;;10282320;28;20230;-55
2022/03/02 18:04:12;;;;;;;22.90;17.55;;;;;;;;;;10269100;28;20138;-56
2022/03/02 18:09:14;;;;;;;36.53;26.23;;;;;;;;;;10254035;28;20515;-56
2022/03/02 18:14:14;;;;;;;17.98;15.52;;;;;;;;;;10255181;28;20081;-56
2022/03/02 18:19:14;;;;;;;28.35;22.80;;;;;;;;;;10251999;28;20466;-58
2022/03/02 18:24:13;;;;;;;25.38;22.63;;;;;;;;;;10266474;28;20071;-53
2022/03/02 18:29:11;;;;;;;32.10;26.90;;;;;;;;;;10254468;28;20089;-54
2022/03/02 18:34:11;;;;;;;28.33;25.10;;;;;;;;;;10258298;28;20072;-56
2022/03/02 18:39:14;;;;;;;68.03;47.13;;;;;;;;;;10265515;28;20073;-55
2022/03/02 18:44:13;;;;;;;70.72;49.63;;;;;;;;;;10256937;28;20072;-55
2022/03/02 18:49:15;;;;;;;65.82;47.83;;;;;;;;;;10247978;28;20087;-54
2022/03/02 18:54:15;;;;;;;81.45;56.80;;;;;;;;;;10249276;28;20075;-53
2022/03/02 18:59:14;;;;;;;120.90;82.00;;;;;;;;;;10251426;28;20072;-55
2022/03/02 19:04:14;;;;;;;152.57;88.80;;;;;;;;;;10249196;28;20080;-56
2022/03/02 19:09:12;;;;;;;72.68;54.00;;;;;;;;;;10250913;28;20522;-54
2022/03/02 19:14:11;;;;;;;73.95;54.92;;;;;;;;;;10256903;28;20072;-57
2022/03/02 19:19:10;;;;;;;280.55;145.00;;;;;;;;;;10255411;28;20066;-56
2022/03/02 19:24:09;;;;;;;134.32;83.93;;;;;;;;;;10274529;28;20084;-56
2022/03/02 19:29:08;;;;;;;230.40;122.32;;;;;;;;;;10258637;28;20072;-55
2022/03/02 19:34:06;;;;;;;228.45;129.43;;;;;;;;;;10281730;28;20080;-54
2022/03/02 19:44:22;;;;;;;131.07;82.75;;;;;;;;;;10258606;28;20533;-55
2022/03/02 19:49:23;;;;;;;119.20;73.75;;;;;;;;;;10264294;28;20076;-55
2022/03/02 19:54:22;;;;;;;99.93;60.00;;;;;;;;;;10254825;28;20076;-54
2022/03/02 19:59:22;;;;;;;98.13;58.03;;;;;;;;;;10254130;28;20073;-55
2022/03/02 20:04:21;;;;;;;49.50;37.38;;;;;;;;;;10265038;28;20076;-52
2022/03/02 20:09:19;;;;;;;48.97;32.13;;;;;;;;;;10247826;28;20077;-52
2022/03/02 20:14:17;;;;;;;27.42;22.98;;;;;;;;;;10254339;28;20068;-55
2022/03/02 20:19:17;;;;;;;38.22;31.08;;;;;;;;;;10250821;28;20065;-52
2022/03/02 20:24:15;;;;;;;27.40;22.55;;;;;;;;;;10242605;28;20072;-55
2022/03/02 20:29:13;;;;;;;41.72;31.80;;;;;;;;;;10257051;28;20080;-50
2022/03/02 20:34:12;;;;;;;49.03;35.28;;;;;;;;;;10263172;28;20120;-56
2022/03/02 20:39:18;;;;;;;64.55;40.83;;;;;;;;;;10273831;28;20481;-53
2022/03/02 20:44:16;;;;;;;55.72;36.13;;;;;;;;;;10275724;28;20080;-53
2022/03/02 20:49:18;;;;;;;57.70;38.65;;;;;;;;;;10250426;28;20111;-54
2022/03/02 20:54:18;;;;;;;77.90;48.17;;;;;;;;;;10251363;28;20075;-53
2022/03/02 20:59:16;;;;;;;56.35;34.88;;;;;;;;;;10249975;28;20477;-54
2022/03/02 21:04:14;;;;;;;46.85;28.20;;;;;;;;;;10255127;28;20077;-55
2022/03/02 21:09:13;;;;;;;52.83;34.88;;;;;;;;;;10258399;28;20163;-55
2022/03/02 21:14:13;;;;;;;63.75;41.20;;;;;;;;;;10248735;28;20069;-55
2022/03/02 21:19:12;;;;;;;62.35;36.35;;;;;;;;;;10262141;28;20065;-56
2022/03/02 21:24:10;;;;;;;109.63;62.50;;;;;;;;;;10248212;28;20049;-55
2022/03/02 21:29:08;;;;;;;77.45;44.97;;;;;;;;;;10261837;28;20068;-56
2022/03/02 21:34:08;;;;;;;119.95;61.92;;;;;;;;;;10269706;28;20501;-55
2022/03/02 21:39:06;;;;;;;85.00;40.40;;;;;;;;;;10250850;28;20611;-55
2022/03/02 21:44:05;;;;;;;50.75;33.25;;;;;;;;;;10249357;28;20070;-54
2022/03/02 21:49:03;;;;;;;106.68;53.20;;;;;;;;;;10253181;28;20069;-55
2022/03/02 21:54:03;;;;;;;135.00;60.80;;;;;;;;;;10249137;28;20509;-52
2022/03/02 21:59:01;;;;;;;170.00;73.53;;;;;;;;;;10251704;28;20072;-56
2022/03/02 22:04:01;;;;;;;162.90;69.13;;;;;;;;;;10255739;28;20423;-54
2022/03/02 22:08:59;;;;;;;153.00;74.20;;;;;;;;;;10245812;28;20523;-57
2022/03/02 22:14:01;;;;;;;121.50;60.58;;;;;;;;;;10260651;28;20116;-56
2022/03/02 22:18:59;;;;;;;166.27;68.57;;;;;;;;;;10265189;28;20080;-56
2022/03/02 22:23:58;;;;;;;137.82;59.53;;;;;;;;;;10267724;28;20481;-56
2022/03/02 22:28:56;;;;;;;119.10;60.35;;;;;;;;;;10261290;28;20069;-56
2022/03/02 22:33:55;;;;;;;78.15;36.65;;;;;;;;;;10255472;28;20088;-55
2022/03/02 22:38:54;;;;;;;52.20;27.63;;;;;;;;;;10267727;28;20076;-56
2022/03/02 22:43:52;;;;;;;41.97;21.48;;;;;;;;;;10268535;28;20466;-56
2022/03/02 22:48:50;;;;;;;64.72;35.58;;;;;;;;;;10292217;28;20555;-55
2022/03/02 22:53:50;;;;;;;88.72;37.55;;;;;;;;;;10309052;28;20084;-56
2022/03/02 22:58:49;;;;;;;147.02;59.70;;;;;;;;;;10287086;28;20080;-55
2022/03/02 23:03:47;;;;;;;186.35;74.32;;;;;;;;;;10264090;28;20095;-54
2022/03/02 23:14:04;;;;;;;100.70;48.58;;;;;;;;;;10266582;28;20083;-55
2022/03/02 23:19:03;;;;;;;65.55;30.85;;;;;;;;;;10267162;28;20079;-55
2022/03/02 23:24:02;;;;;;;103.45;51.05;;;;;;;;;;10261987;28;20521;-56
2022/03/02 23:29:00;;;;;;;137.80;66.78;;;;;;;;;;10266830;28;20073;-56
2022/03/02 23:33:59;;;;;;;96.72;46.67;;;;;;;;;;10267521;28;20064;-55
2022/03/02 23:38:58;;;;;;;110.22;51.65;;;;;;;;;;10262542;28;20069;-57
2022/03/02 23:43:56;;;;;;;168.00;80.40;;;;;;;;;;10264688;28;20079;-57
2022/03/02 23:48:54;;;;;;;136.80;61.40;;;;;;;;;;10261922;28;20086;-54
2022/03/02 23:53:54;;;;;;;120.78;57.42;;;;;;;;;;10269891;28;20077;-56
2022/03/02 23:58:52;;;;;;;97.53;40.63;;;;;;;;;;10267995;28;20075;-56
